• Join FlightAware (Why Join?)
  • Login
  • US Flag 
05:41AM EDT


 

Airport Tracker/Info


-or-


 

Live Flight TrackerFlight Track Log ✈ UAL4678 ✈ 04-May-2013 ✈ KORF - KIAH

Flight Track Log - Related Links

Times and Time Zones

All times are in EDT time to prevent confusion due to time zone crossing. See the UAL4678 flight status page for this flight to view local times or setup timezone preferences in your user account.

Time Position Orientation Groundspeed Altitude Reporting Facility
EDT Latitude Longitude Course Direction KTS MPH feet Rate Location/Type
05:57AM 36.9036 -76.1919 247° West 160 184 500  Level Washington Center
05:58AM 36.9539 -76.1481 35° Northeast 180 207 2,700 1,980 Climbing Washington Center
05:59AM 37.0039 -76.1692 341° North 182 209 5,000 2,160 Climbing Washington Center
06:00AM 36.7880 -76.6767 256° West  Level FlightAware Approximate
06:00AM 36.9867 -76.2575 256° West 142 163 7,100  Level Washington Center
06:01AM 36.7596 -76.7953 253° West  Level FlightAware Approximate
06:01AM 36.9547 -76.3483 246° West 220 253 9,600  Level Washington Center
06:02AM 36.7290 -76.9130 247° West  Level FlightAware Approximate
06:02AM 36.9186 -76.4492 246° West 273 314 10,800  Level Washington Center
06:03AM 36.8781 -76.5603 246° West 325 374 12,000 1,380 Climbing Washington Center
06:04AM 36.8356 -76.6767 246° West 358 412 13,600 1,560 Climbing Washington Center
06:05AM 36.7925 -76.7953 246° West 370 426 15,200 1,560 Climbing Washington Center
06:06AM 36.7497 -76.9139 246° West 380 437 16,800 1,320 Climbing Washington Center
06:07AM 36.7044 -77.0322 245° Southwest 380 437 17,800 960 Climbing Washington Center
06:08AM 36.6489 -77.1478 239° Southwest 385 443 18,800 960 Climbing Washington Center
06:09AM 36.5950 -77.2708 241° Southwest 397 457 19,800 1,140 Climbing Washington Center
06:10AM 36.5389 -77.3911 240° Southwest 402 463 21,100 1,380 Climbing Washington Center
06:11AM 36.4808 -77.5114 239° Southwest 402 463 22,600 900 Climbing Washington Center
06:12AM 36.4200 -77.6467 241° Southwest 402 463 23,000 900 Climbing Washington Center
06:13AM 36.3617 -77.7689 239° Southwest 408 470 24,500 1,680 Climbing Washington Center
06:14AM 36.3072 -77.8858 240° Southwest 413 475 26,400 1,560 Climbing Washington Center
06:15AM 36.2531 -77.9978 239° Southwest 398 458 27,600 1,080 Climbing Washington Center
06:16AM 36.2006 -78.1094 240° Southwest 393 452 28,700 1,080 Climbing Washington Center
06:17AM 36.1481 -78.2208 240° Southwest 386 444 29,800 1,140 Climbing Washington Center
06:18AM 36.0933 -78.3322 239° Southwest 386 444 31,000 1,200 Climbing Washington Center
06:19AM 36.0408 -78.4408 239° Southwest 376 433 32,300 1,140 Climbing Washington Center
06:20AM 35.9922 -78.5469 241° Southwest 376 433 33,300 960 Climbing Washington Center
06:21AM 35.9397 -78.6500 238° Southwest 371 427 34,300 900 Climbing Washington Center
06:22AM 35.8889 -78.7533 239° Southwest 366 421 35,200 840 Climbing Washington Center
06:23AM 35.8528 -78.8619 248° West 358 412 36,000 360 Climbing Washington Center
06:24AM 35.8244 -78.9786 253° West 358 412 36,000  Level Washington Center
06:26AM 35.7706 -79.1861 252° West 367 422 36,000  Level Atlanta Center
06:27AM 35.7378 -79.3133 252° West 385 443 36,000  Level Atlanta Center
06:28AM 35.7033 -79.4483 253° West 403 464 36,000  Level Atlanta Center
06:29AM 35.6600 -79.5761 247° West 410 472 36,000  Level Atlanta Center
06:30AM 35.5978 -79.6969 238° Southwest 415 478 36,000  Level Atlanta Center
06:31AM 35.5372 -79.8200 239° Southwest 426 490 36,000  Level Atlanta Center
06:32AM 35.4747 -79.9431 238° Southwest 432 497 36,000  Level Atlanta Center
06:33AM 35.4103 -80.0764 239° Southwest 424 488 36,000  Level Atlanta Center
06:34AM 35.3472 -80.1992 238° Southwest 424 488 36,000  Level Atlanta Center
06:35AM 35.2922 -80.3083 238° Southwest 424 488 36,000  Level Atlanta Center
06:36AM 35.2292 -80.4333 238° Southwest 425 489 36,000  Level Atlanta Center
06:37AM 35.1681 -80.5528 238° Southwest 425 489 36,000  Level Atlanta Center
06:38AM 35.1025 -80.6750 237° Southwest 425 489 36,000  Level Atlanta Center
06:39AM 35.0392 -80.8044 239° Southwest 420 483 36,000  Level Atlanta Center
06:40AM 34.9797 -80.9208 238° Southwest 415 478 36,000  Level Atlanta Center
06:41AM 34.9178 -81.0369 237° Southwest 420 483 36,000  Level Atlanta Center
06:42AM 34.8581 -81.1531 238° Southwest 415 478 36,000  Level Atlanta Center
06:43AM 34.7981 -81.2689 238° Southwest 415 478 36,000  Level Atlanta Center
06:44AM 34.7383 -81.3897 239° Southwest 416 479 36,000  Level Atlanta Center
06:45AM 34.6758 -81.5028 236° Southwest 416 479 36,000  Level Atlanta Center
06:46AM 34.6217 -81.6081 238° Southwest 423 487 36,000  Level Atlanta Center
06:47AM 34.5533 -81.7411 238° Southwest 423 487 36,000  Level Atlanta Center
06:48AM 34.4886 -81.8589 236° Southwest 423 487 36,000  Level Atlanta Center
06:49AM 34.4281 -81.9764 238° Southwest 423 487 36,000  Level Atlanta Center
06:50AM 34.3633 -82.0961 237° Southwest 423 487 36,000  Level Atlanta Center
06:51AM 34.3003 -82.2158 238° Southwest 423 487 36,000  Level Atlanta Center
06:52AM 34.2353 -82.3353 237° Southwest 423 487 36,000  Level Atlanta Center
06:53AM 34.1722 -82.4544 237° Southwest 423 487 36,000  Level Atlanta Center
06:54AM 34.1089 -82.5736 237° Southwest 423 487 36,000  Level Atlanta Center
06:55AM 34.0331 -82.6828 230° Southwest 423 487 36,000  Level Atlanta Center
06:56AM 33.9464 -82.7742 221° Southwest 411 473 36,000  Level Atlanta Center
06:57AM 33.8594 -82.8631 220° Southwest 417 480 36,000  Level Atlanta Center
06:58AM 33.7686 -82.9492 218° Southwest 422 486 36,000  Level Atlanta Center
06:59AM 33.6775 -83.0328 217° Southwest 422 486 36,000  Level Atlanta Center
07:00AM 33.5967 -83.1036 216° Southwest 422 486 36,000  Level Atlanta Center
07:01AM 33.5033 -83.1844 216° Southwest 416 479 36,000  Level Atlanta Center
07:02AM 33.4139 -83.2597 215° Southwest 402 463 36,000  Level Atlanta Center
07:03AM 33.3206 -83.3353 214° Southwest 402 463 36,000  Level Atlanta Center
07:04AM 33.2333 -83.4131 217° Southwest 408 470 36,000  Level Atlanta Center
07:05AM 33.1586 -83.5153 229° Southwest 403 464 36,000  Level Atlanta Center
07:06AM 33.0944 -83.6422 239° Southwest 409 471 36,000  Level Atlanta Center
07:07AM 33.0425 -83.7614 243° Southwest 414 476 36,000  Level Atlanta Center
07:08AM 32.9883 -83.8778 241° Southwest 414 476 36,000  Level Atlanta Center
07:09AM 32.9322 -83.9919 240° Southwest 408 470 36,000  Level Atlanta Center
07:10AM 32.8758 -84.1081 240° Southwest 408 470 36,000 240 Level Atlanta Center
07:11AM 32.8194 -84.2242 240° Southwest 408 470 36,500 480 Climbing Atlanta Center
07:12AM 32.7669 -84.3378 241° Southwest 403 464 37,000 240 Climbing Atlanta Center
07:13AM 32.7122 -84.4511 240° Southwest 397 457 37,000  Level Atlanta Center
07:14AM 32.6597 -84.5644 241° Southwest 397 457 37,000  Level Atlanta Center
07:15AM 32.6236 -84.6900 251° West 392 451 37,000  Level Atlanta Center
07:16AM 32.5917 -84.8156 253° West 397 457 37,000  Level Atlanta Center
07:17AM 32.5617 -84.9333 253° West 392 451 37,000  Level Atlanta Center
07:18AM 32.5336 -85.0564 255° West 392 451 37,000  Level Atlanta Center
07:19AM 32.5053 -85.1792 255° West 387 445 37,000  Level Atlanta Center
07:20AM 32.4728 -85.2994 252° West 387 445 37,000  Level Atlanta Center
07:21AM 32.4381 -85.4219 251° West 387 445 37,000  Level Atlanta Center
07:22AM 32.3908 -85.5344 244° Southwest 387 445 37,000  Level Atlanta Center
07:23AM 32.3311 -85.6392 236° Southwest 387 445 37,000  Level Atlanta Center
07:24AM 32.2711 -85.7461 236° Southwest 393 452 37,000  Level Atlanta Center
07:25AM 32.2092 -85.8578 237° Southwest 403 464 37,000  Level Atlanta Center
07:26AM 32.1469 -85.9619 235° Southwest 398 458 37,000  Level Atlanta Center
07:27AM 32.0847 -86.0661 235° Southwest 398 458 37,000  Level Atlanta Center
07:28AM 32.0289 -86.1603 235° Southwest 393 452 37,000  Level Atlanta Center
07:29AM 31.9686 -86.2667 236° Southwest 393 452 37,000  Level Atlanta Center
07:30AM 31.9083 -86.3728 236° Southwest 393 452 37,000  Level Atlanta Center
07:31AM 31.8500 -86.4739 236° Southwest 393 452 37,000  Level Atlanta Center
07:32AM 31.7914 -86.5775 236° Southwest 393 452 37,000  Level Atlanta Center
07:33AM 31.7308 -86.6808 235° Southwest 393 452 37,000  Level Atlanta Center
07:34AM 31.6725 -86.7817 236° Southwest 393 452 37,000  Level Atlanta Center
07:35AM 31.6158 -86.8797 236° Southwest 388 447 37,000  Level Atlanta Center
07:37AM 31.4814 -87.1019 235° Southwest 362 417 37,000  Level Houston Center
07:38AM 31.4250 -87.1981 236° Southwest 359 413 37,000  Level Houston Center
07:39AM 31.3681 -87.2950 235° Southwest 359 413 37,000  Level Houston Center
07:40AM 31.3117 -87.3919 236° Southwest 360 414 37,000  Level Houston Center
07:41AM 31.2553 -87.4897 236° Southwest 362 417 37,000  Level Houston Center
07:42AM 31.2164 -87.5956 247° West 356 410 37,000 -240 Level Houston Center
07:43AM 31.1800 -87.7064 249° West 354 407 36,600 -600 Descending Houston Center
07:44AM 31.1400 -87.8139 247° West 360 414 35,900 -300 Descending Houston Center
07:45AM 31.1019 -87.9200 247° West 357 411 36,000  Climbing Houston Center
07:46AM 31.0628 -88.0450 250° West 345 397 36,000  Level Houston Center
07:47AM 31.0256 -88.1506 248° West 351 404 36,000  Level Houston Center
07:48AM 30.9872 -88.2567 247° West 355 409 36,000  Level Houston Center
07:49AM 30.9528 -88.3633 249° West 354 407 36,000  Level Houston Center
07:50AM 30.9161 -88.4678 248° West 349 402 36,000  Level Houston Center
07:51AM 30.8792 -88.5739 248° West 352 405 36,000  Level Houston Center
07:52AM 30.8400 -88.6853 248° West 350 403 36,000  Level Houston Center
07:53AM 30.8039 -88.7897 248° West 349 402 36,000  Level Houston Center
07:54AM 30.7664 -88.8953 248° West 352 405 36,000  Level Houston Center
07:55AM 30.7331 -88.9936 248° West 352 405 36,000  Level Houston Center
07:56AM 30.6947 -89.0986 247° West 352 405 36,000  Level Houston Center
07:57AM 30.6586 -89.2047 248° West 354 407 36,000  Level Houston Center
07:58AM 30.6225 -89.3103 248° West 354 407 36,000  Level Houston Center
07:59AM 30.5858 -89.4161 248° West 354 407 36,000  Level Houston Center
08:00AM 30.5478 -89.5222 247° West 356 410 36,000  Level Houston Center
08:01AM 30.5106 -89.6278 248° West 356 410 36,000  Level Houston Center
08:02AM 30.4647 -89.7550 247° West 362 417 36,000  Level Houston Center
08:03AM 30.4275 -89.8594 248° West 363 418 36,000  Level Houston Center
08:04AM 30.3892 -89.9644 247° West 362 417 36,000  Level Houston Center
08:05AM 30.3506 -90.0703 247° West 362 417 36,000  Level Houston Center
08:06AM 30.3111 -90.1792 247° West 368 423 36,000  Level Houston Center
08:07AM 30.2717 -90.2875 247° West 368 423 36,000  Level Houston Center
08:08AM 30.2328 -90.3961 248° West 369 425 36,000  Level Houston Center
08:09AM 30.1914 -90.5050 246° West 369 425 36,000  Level Houston Center
08:10AM 30.1433 -90.6356 247° West 369 425 36,000  Level Houston Center
08:11AM 30.1019 -90.7450 246° West 374 430 36,000  Level Houston Center
08:12AM 30.0631 -90.8542 248° West 370 426 36,000  Level Houston Center
08:13AM 30.0222 -90.9644 247° West 373 429 36,000  Level Houston Center
08:15AM 29.9811 -91.0742 247° West 373 429 36,000  Level Houston Center
08:16AM 29.9400 -91.1850 247° West 375 432 36,000  Level Houston Center
08:17AM 29.8981 -91.2953 246° West 377 434 36,000  Level Houston Center
08:18AM 29.8569 -91.4058 247° West 376 433 36,000  Level Houston Center
08:19AM 29.8158 -91.5164 247° West 376 433 36,000  Level Houston Center
08:20AM 29.7742 -91.6264 246° West 376 433 36,000  Level Houston Center
08:21AM 29.7256 -91.7539 246° West 381 438 36,000  Level Houston Center
08:22AM 29.6844 -91.8642 247° West 376 433 36,000  Level Houston Center
08:23AM 29.6417 -91.9761 246° West 381 438 36,000  Level Houston Center
08:24AM 29.5989 -92.0864 246° West 378 435 36,000  Level Houston Center
08:25AM 29.5569 -92.1958 246° West 376 433 36,000  Level Houston Center
08:26AM 29.5161 -92.3025 246° West 369 425 36,000  Level Houston Center
08:27AM 29.4744 -92.4100 246° West 369 425 36,000  Level Houston Center
08:28AM 29.4594 -92.5206 261° West 353 406 36,000  Level Houston Center
08:29AM 29.4644 -92.6322 273° West 349 402 36,000  Level Houston Center
08:30AM 29.4694 -92.7442 273° West 350 403 36,000  Level Houston Center
08:31AM 29.4747 -92.8542 273° West 347 399 36,000 -240 Level Houston Center
08:32AM 29.4808 -92.9875 273° West 348 400 35,600 -1,380 Descending Houston Center
08:33AM 29.4853 -93.1011 273° West 355 409 33,300 -2,100 Descending Houston Center
08:34AM 29.4908 -93.2186 273° West 366 421 31,400 -1,920 Descending Houston Center
08:35AM 29.4953 -93.3356 273° West 366 421 29,500 -1,860 Descending Houston Center
08:36AM 29.4997 -93.4514 273° West 363 418 27,600 -1,860 Descending Houston Center
08:37AM 29.5053 -93.5661 273° West 360 414 25,700 -1,680 Descending Houston Center
08:38AM 29.5092 -93.6772 272° West 352 405 24,200 -1,800 Descending Houston Center
08:39AM 29.5133 -93.7872 273° West 346 398 22,100 -2,040 Descending Houston Center
08:40AM 29.5167 -93.8961 272° West 343 395 20,100 -1,920 Descending Houston Center
08:41AM 29.5214 -94.0019 273° West 335 386 18,200 -1,740 Descending Houston Center
08:42AM 29.5247 -94.1014 272° West 320 368 16,600 -1,860 Descending Houston Center
08:43AM 29.5269 -94.1875 272° West 307 353 15,000 -1,980 Descending Houston Center
08:43AM 29.5283 -94.2072 275° West 310 357 14,600 -1,680 Descending Houston Center
08:44AM 29.5322 -94.3022 273° West 308 354 13,100 -960 Descending Houston Center
08:45AM 29.5542 -94.3956 285° West 308 354 12,900 -720 Descending Houston Center
08:46AM 29.5869 -94.4728 296° West 270 311 11,700 -1,860 Descending Houston Center
08:47AM 29.6239 -94.5500 299° West 253 291 9,200 -2,220 Descending Houston Center
08:48AM 29.6697 -94.6089 312° West 243 280 7,300 -1,500 Descending Houston Center
08:49AM 29.7128 -94.6636 312° West 240 276 6,200 -960 Descending Houston Center
08:50AM 29.7606 -94.7225 313° West 247 284 5,400 -900 Descending Houston Center
08:51AM 29.8083 -94.7839 312° West 243 280 4,400 -720 Descending Houston Center
08:52AM 29.8539 -94.8433 311° West 246 283 4,000 -600 Descending Houston Center
08:53AM 29.8994 -94.9003 313° West 243 280 3,300 -540 Descending Houston Center
08:54AM 29.9372 -94.9461 314° West 210 242 3,000 -300 Descending Houston Center
08:54AM 29.9436 -94.9514 324° Northwest 221 254 3,000 -480 Level Houston Center
08:55AM 29.9703 -95.0047 300° West 187 215 2,500 -540 Descending Houston Center
08:56AM 29.9775 -95.0594 279° West 158 182 2,000 -240 Descending Houston Center
08:57AM 29.9781 -95.1125 271° West 168 193 2,000  Level Houston Center